sensor_id;sensor_type;location;lat;lon;timestamp;pressure;altitude;pressure_sealevel;temperature;humidity
74370;BME280;71062;44.520;11.342;2023-07-22T00:01:23;100659.44;;;24.79;81.80
74370;BME280;71062;44.520;11.342;2023-07-22T00:03:49;100664.38;;;24.79;81.68
74370;BME280;71062;44.520;11.342;2023-07-22T00:06:14;100653.53;;;24.91;80.65
74370;BME280;71062;44.520;11.342;2023-07-22T00:08:40;100659.56;;;25.05;80.22
74370;BME280;71062;44.520;11.342;2023-07-22T00:11:06;100655.09;;;25.27;79.55
74370;BME280;71062;44.520;11.342;2023-07-22T00:13:33;100660.31;;;25.21;79.36
74370;BME280;71062;44.520;11.342;2023-07-22T00:15:59;100663.66;;;25.23;78.88
74370;BME280;71062;44.520;11.342;2023-07-22T00:18:27;100654.72;;;25.09;78.89
74370;BME280;71062;44.520;11.342;2023-07-22T00:20:54;100650.06;;;25.01;79.59
74370;BME280;71062;44.520;11.342;2023-07-22T00:23:20;100649.59;;;24.99;78.84
74370;BME280;71062;44.520;11.342;2023-07-22T00:25:48;100634.06;;;25.04;78.29
74370;BME280;71062;44.520;11.342;2023-07-22T00:28:14;100642.78;;;25.07;78.21
74370;BME280;71062;44.520;11.342;2023-07-22T00:30:40;100634.31;;;24.95;77.96
74370;BME280;71062;44.520;11.342;2023-07-22T00:33:07;100628.56;;;24.95;78.28
74370;BME280;71062;44.520;11.342;2023-07-22T00:35:33;100631.88;;;24.97;77.57
74370;BME280;71062;44.520;11.342;2023-07-22T00:38:00;100628.56;;;24.95;77.72
74370;BME280;71062;44.520;11.342;2023-07-22T00:40:27;100617.81;;;24.92;76.75
74370;BME280;71062;44.520;11.342;2023-07-22T00:42:55;100612.84;;;24.89;77.36
74370;BME280;71062;44.520;11.342;2023-07-22T00:45:21;100616.00;;;24.84;77.59
74370;BME280;71062;44.520;11.342;2023-07-22T00:47:47;100621.91;;;24.91;76.30
74370;BME280;71062;44.520;11.342;2023-07-22T00:50:14;100620.25;;;24.90;76.36
74370;BME280;71062;44.520;11.342;2023-07-22T00:52:39;100599.06;;;24.79;77.32
74370;BME280;71062;44.520;11.342;2023-07-22T00:55:06;100593.59;;;24.93;75.47
74370;BME280;71062;44.520;11.342;2023-07-22T00:57:32;100592.56;;;24.82;76.45
74370;BME280;71062;44.520;11.342;2023-07-22T00:59:58;100596.94;;;24.76;76.88
74370;BME280;71062;44.520;11.342;2023-07-22T01:02:24;100600.13;;;24.71;77.00
74370;BME280;71062;44.520;11.342;2023-07-22T01:04:50;100597.53;;;24.66;76.11
74370;BME280;71062;44.520;11.342;2023-07-22T01:07:19;100604.78;;;24.60;76.20
74370;BME280;71062;44.520;11.342;2023-07-22T01:09:45;100626.66;;;24.65;75.79
74370;BME280;71062;44.520;11.342;2023-07-22T01:12:11;100622.94;;;24.64;76.18
74370;BME280;71062;44.520;11.342;2023-07-22T01:14:40;100622.03;;;24.60;75.75
74370;BME280;71062;44.520;11.342;2023-07-22T01:17:08;100624.28;;;24.51;75.76
74370;BME280;71062;44.520;11.342;2023-07-22T01:19:34;100623.31;;;24.44;76.38
74370;BME280;71062;44.520;11.342;2023-07-22T01:22:03;100624.28;;;24.51;76.00
74370;BME280;71062;44.520;11.342;2023-07-22T01:24:30;100619.31;;;24.48;76.02
74370;BME280;71062;44.520;11.342;2023-07-22T01:26:57;100618.84;;;24.46;76.58
74370;BME280;71062;44.520;11.342;2023-07-22T01:29:23;100623.41;;;24.47;75.84
74370;BME280;71062;44.520;11.342;2023-07-22T01:31:51;100619.06;;;24.38;76.33
74370;BME280;71062;44.520;11.342;2023-07-22T01:34:17;100619.81;;;24.35;77.11
74370;BME280;71062;44.520;11.342;2023-07-22T01:36:45;100628.53;;;24.38;77.21
74370;BME280;71062;44.520;11.342;2023-07-22T01:39:13;100650.28;;;24.39;76.62
74370;BME280;71062;44.520;11.342;2023-07-22T01:41:39;100661.16;;;24.30;77.49
74370;BME280;71062;44.520;11.342;2023-07-22T01:44:05;100657.22;;;24.19;78.59
74370;BME280;71062;44.520;11.342;2023-07-22T01:46:31;100655.09;;;24.16;78.76
74370;BME280;71062;44.520;11.342;2023-07-22T01:48:57;100649.34;;;24.16;78.83
74370;BME280;71062;44.520;11.342;2023-07-22T01:51:22;100650.84;;;24.10;79.20
74370;BME280;71062;44.520;11.342;2023-07-22T01:53:48;100656.31;;;23.99;79.53
74370;BME280;71062;44.520;11.342;2023-07-22T01:56:15;100658.53;;;24.06;80.15
74370;BME280;71062;44.520;11.342;2023-07-22T01:58:41;100668.66;;;24.00;80.34
74370;BME280;71062;44.520;11.342;2023-07-22T02:01:07;100668.34;;;24.05;80.09
74370;BME280;71062;44.520;11.342;2023-07-22T02:03:33;100665.41;;;24.01;80.36
74370;BME280;71062;44.520;11.342;2023-07-22T02:06:06;100674.09;;;24.05;80.90
74370;BME280;71062;44.520;11.342;2023-07-22T02:08:31;100663.88;;;23.92;80.84
74370;BME280;71062;44.520;11.342;2023-07-22T02:11:05;100668.97;;;23.83;81.67
74370;BME280;71062;44.520;11.342;2023-07-22T02:13:32;100676.28;;;23.96;81.72
74370;BME280;71062;44.520;11.342;2023-07-22T02:15:57;100676.97;;;23.89;82.01
74370;BME280;71062;44.520;11.342;2023-07-22T02:18:24;100674.28;;;23.81;82.30
74370;BME280;71062;44.520;11.342;2023-07-22T02:20:50;100686.84;;;23.92;82.14
74370;BME280;71062;44.520;11.342;2023-07-22T02:23:15;100692.59;;;23.92;82.73
74370;BME280;71062;44.520;11.342;2023-07-22T02:25:41;100694.75;;;23.95;82.39
74370;BME280;71062;44.520;11.342;2023-07-22T02:28:06;100696.78;;;23.94;81.82
74370;BME280;71062;44.520;11.342;2023-07-22T02:30:36;100701.94;;;23.89;81.93
74370;BME280;71062;44.520;11.342;2023-07-22T02:33:05;100704.06;;;23.92;81.95
74370;BME280;71062;44.520;11.342;2023-07-22T02:35:30;100705.66;;;23.89;81.90
74370;BME280;71062;44.520;11.342;2023-07-22T02:37:56;100710.56;;;23.89;81.55
74370;BME280;71062;44.520;11.342;2023-07-22T02:40:22;100720.59;;;23.95;80.71
74370;BME280;71062;44.520;11.342;2023-07-22T02:42:47;100723.69;;;23.90;80.61
74370;BME280;71062;44.520;11.342;2023-07-22T02:45:13;100727.97;;;23.96;80.04
74370;BME280;71062;44.520;11.342;2023-07-22T02:47:39;100715.06;;;24.02;80.19
74370;BME280;71062;44.520;11.342;2023-07-22T02:50:08;100720.97;;;24.09;79.91
74370;BME280;71062;44.520;11.342;2023-07-22T02:52:34;100722.06;;;24.20;79.68
74370;BME280;71062;44.520;11.342;2023-07-22T02:57:29;100723.78;;;23.93;80.80
74370;BME280;71062;44.520;11.342;2023-07-22T02:59:56;100731.31;;;23.98;80.57
74370;BME280;71062;44.520;11.342;2023-07-22T03:02:22;100730.00;;;23.95;79.69
74370;BME280;71062;44.520;11.342;2023-07-22T03:04:47;100729.63;;;23.66;81.37
74370;BME280;71062;44.520;11.342;2023-07-22T03:07:13;100734.44;;;23.62;81.55
74370;BME280;71062;44.520;11.342;2023-07-22T03:09:40;100739.25;;;23.58;81.35
74370;BME280;71062;44.520;11.342;2023-07-22T03:12:05;100748.00;;;23.34;81.76
74370;BME280;71062;44.520;11.342;2023-07-22T03:14:32;100744.69;;;23.47;81.65
74370;BME280;71062;44.520;11.342;2023-07-22T03:17:03;100751.97;;;23.45;81.45
74370;BME280;71062;44.520;11.342;2023-07-22T03:19:31;100753.84;;;23.25;81.35
74370;BME280;71062;44.520;11.342;2023-07-22T03:21:57;100745.84;;;23.31;81.34
74370;BME280;71062;44.520;11.342;2023-07-22T03:24:22;100746.53;;;23.27;81.50
74370;BME280;71062;44.520;11.342;2023-07-22T03:26:48;100756.84;;;23.16;81.63
74370;BME280;71062;44.520;11.342;2023-07-22T03:29:14;100760.88;;;23.27;81.32
74370;BME280;71062;44.520;11.342;2023-07-22T03:31:40;100770.13;;;23.21;81.54
74370;BME280;71062;44.520;11.342;2023-07-22T03:34:05;100767.50;;;23.16;80.70
74370;BME280;71062;44.520;11.342;2023-07-22T03:36:31;100755.31;;;23.19;81.26
74370;BME280;71062;44.520;11.342;2023-07-22T03:39:00;100753.09;;;23.40;80.26
74370;BME280;71062;44.520;11.342;2023-07-22T03:41:26;100745.22;;;23.37;79.94
74370;BME280;71062;44.520;11.342;2023-07-22T03:43:52;100750.41;;;23.19;79.99
74370;BME280;71062;44.520;11.342;2023-07-22T03:46:18;100753.56;;;23.14;80.01
74370;BME280;71062;44.520;11.342;2023-07-22T03:48:44;100747.44;;;23.16;80.00
74370;BME280;71062;44.520;11.342;2023-07-22T03:51:10;100753.47;;;23.39;79.35
74370;BME280;71062;44.520;11.342;2023-07-22T03:53:35;100738.69;;;23.24;79.84
74370;BME280;71062;44.520;11.342;2023-07-22T03:56:01;100758.00;;;23.27;79.90
74370;BME280;71062;44.520;11.342;2023-07-22T03:58:27;100760.09;;;23.15;80.28
74370;BME280;71062;44.520;11.342;2023-07-22T04:00:53;100767.34;;;23.37;80.26
74370;BME280;71062;44.520;11.342;2023-07-22T04:03:18;100768.28;;;23.41;78.98
74370;BME280;71062;44.520;11.342;2023-07-22T04:05:44;100769.00;;;23.38;79.21
74370;BME280;71062;44.520;11.342;2023-07-22T04:08:10;100764.72;;;23.32;78.90
74370;BME280;71062;44.520;11.342;2023-07-22T04:10:36;100756.81;;;23.41;78.86
74370;BME280;71062;44.520;11.342;2023-07-22T04:13:01;100760.00;;;23.67;78.60
74370;BME280;71062;44.520;11.342;2023-07-22T04:15:28;100768.34;;;23.72;77.50
74370;BME280;71062;44.520;11.342;2023-07-22T04:17:55;100769.59;;;23.59;78.01
74370;BME280;71062;44.520;11.342;2023-07-22T04:20:21;100776.81;;;23.53;78.41
74370;BME280;71062;44.520;11.342;2023-07-22T04:22:49;100776.34;;;23.51;78.29
74370;BME280;71062;44.520;11.342;2023-07-22T04:25:15;100766.59;;;23.40;79.63
74370;BME280;71062;44.520;11.342;2023-07-22T04:27:41;100775.78;;;23.45;79.49
74370;BME280;71062;44.520;11.342;2023-07-22T04:30:07;100775.88;;;23.49;80.25
74370;BME280;71062;44.520;11.342;2023-07-22T04:32:33;100771.56;;;23.55;81.21
74370;BME280;71062;44.520;11.342;2023-07-22T04:34:58;100781.28;;;23.66;81.88
74370;BME280;71062;44.520;11.342;2023-07-22T04:37:24;100772.00;;;23.57;83.46
74370;BME280;71062;44.520;11.342;2023-07-22T04:39:50;100774.63;;;23.62;83.66
74370;BME280;71062;44.520;11.342;2023-07-22T04:42:16;100777.03;;;23.60;84.15
74370;BME280;71062;44.520;11.342;2023-07-22T04:44:42;100777.03;;;23.60;84.83
74370;BME280;71062;44.520;11.342;2023-07-22T04:47:09;100778.47;;;23.54;85.25
74370;BME280;71062;44.520;11.342;2023-07-22T04:49:36;100781.34;;;23.54;85.47
74370;BME280;71062;44.520;11.342;2023-07-22T04:52:02;100785.34;;;23.65;84.65
74370;BME280;71062;44.520;11.342;2023-07-22T04:54:28;100782.50;;;23.65;84.69
74370;BME280;71062;44.520;11.342;2023-07-22T04:56:53;100774.72;;;23.65;84.55
74370;BME280;71062;44.520;11.342;2023-07-22T04:59:19;100774.72;;;23.65;84.88
74370;BME280;71062;44.520;11.342;2023-07-22T05:01:45;100792.94;;;23.73;84.75
74370;BME280;71062;44.520;11.342;2023-07-22T05:04:11;100795.25;;;23.67;85.37
74370;BME280;71062;44.520;11.342;2023-07-22T05:06:36;100791.97;;;23.81;85.16
74370;BME280;71062;44.520;11.342;2023-07-22T05:09:02;100807.22;;;23.85;85.47
74370;BME280;71062;44.520;11.342;2023-07-22T05:11:28;100790.38;;;23.83;85.43
74370;BME280;71062;44.520;11.342;2023-07-22T05:13:54;100797.63;;;23.93;85.35
74370;BME280;71062;44.520;11.342;2023-07-22T05:16:20;100801.69;;;23.92;85.51
74370;BME280;71062;44.520;11.342;2023-07-22T05:18:46;100801.63;;;24.04;85.67
74370;BME280;71062;44.520;11.342;2023-07-22T05:21:12;100809.25;;;24.12;83.91
74370;BME280;71062;44.520;11.342;2023-07-22T05:23:38;100815.84;;;24.28;83.92
74370;BME280;71062;44.520;11.342;2023-07-22T05:26:03;100807.22;;;24.28;83.98
74370;BME280;71062;44.520;11.342;2023-07-22T05:28:29;100821.75;;;24.35;83.10
74370;BME280;71062;44.520;11.342;2023-07-22T05:30:56;100827.88;;;24.49;82.59
74370;BME280;71062;44.520;11.342;2023-07-22T05:33:21;100815.72;;;24.56;82.74
74370;BME280;71062;44.520;11.342;2023-07-22T05:35:50;100816.56;;;24.56;82.28
74370;BME280;71062;44.520;11.342;2023-07-22T05:38:16;100815.16;;;24.50;82.18
74370;BME280;71062;44.520;11.342;2023-07-22T05:40:41;100816.28;;;24.46;82.43
74370;BME280;71062;44.520;11.342;2023-07-22T05:43:07;100820.06;;;24.50;82.10
74370;BME280;71062;44.520;11.342;2023-07-22T05:45:33;100829.88;;;24.64;81.42
74370;BME280;71062;44.520;11.342;2023-07-22T05:47:59;100838.44;;;24.76;81.17
74370;BME280;71062;44.520;11.342;2023-07-22T05:50:24;100836.56;;;24.84;80.20
74370;BME280;71062;44.520;11.342;2023-07-22T05:52:50;100834.41;;;24.96;79.71
74370;BME280;71062;44.520;11.342;2023-07-22T05:55:16;100824.25;;;25.02;79.48
74370;BME280;71062;44.520;11.342;2023-07-22T05:57:42;100831.88;;;25.10;79.09
74370;BME280;71062;44.520;11.342;2023-07-22T06:00:08;100836.41;;;25.11;78.77
74370;BME280;71062;44.520;11.342;2023-07-22T06:02:34;100841.94;;;25.20;78.51
74370;BME280;71062;44.520;11.342;2023-07-22T06:05:00;100848.38;;;25.13;78.85
74370;BME280;71062;44.520;11.342;2023-07-22T06:07:27;100850.19;;;25.21;79.29
74370;BME280;71062;44.520;11.342;2023-07-22T06:09:52;100846.47;;;25.37;78.53
74370;BME280;71062;44.520;11.342;2023-07-22T06:12:18;100855.41;;;25.51;77.19
74370;BME280;71062;44.520;11.342;2023-07-22T06:14:44;100860.09;;;25.59;76.55
74370;BME280;71062;44.520;11.342;2023-07-22T06:17:09;100860.25;;;25.66;75.75
74370;BME280;71062;44.520;11.342;2023-07-22T06:19:35;100872.50;;;25.44;78.28
74370;BME280;71062;44.520;11.342;2023-07-22T06:22:00;100873.50;;;25.35;78.94
74370;BME280;71062;44.520;11.342;2023-07-22T06:24:26;100879.38;;;25.39;78.64
74370;BME280;71062;44.520;11.342;2023-07-22T06:26:52;100868.72;;;25.40;78.80
74370;BME280;71062;44.520;11.342;2023-07-22T06:29:18;100868.56;;;25.52;78.59
74370;BME280;71062;44.520;11.342;2023-07-22T06:31:43;100877.34;;;25.59;77.43
74370;BME280;71062;44.520;11.342;2023-07-22T06:34:09;100883.88;;;25.75;77.03
74370;BME280;71062;44.520;11.342;2023-07-22T06:36:34;100885.84;;;25.90;75.88
74370;BME280;71062;44.520;11.342;2023-07-22T06:39:00;100883.56;;;25.80;76.21
74370;BME280;71062;44.520;11.342;2023-07-22T06:41:26;100883.56;;;25.80;76.83
74370;BME280;71062;44.520;11.342;2023-07-22T06:43:51;100869.47;;;25.75;76.40
74370;BME280;71062;44.520;11.342;2023-07-22T06:46:17;100859.63;;;25.76;76.69
74370;BME280;71062;44.520;11.342;2023-07-22T06:48:43;100875.38;;;25.82;75.98
74370;BME280;71062;44.520;11.342;2023-07-22T06:51:09;100875.78;;;25.80;77.29
74370;BME280;71062;44.520;11.342;2023-07-22T06:53:34;100876.56;;;26.00;76.73
74370;BME280;71062;44.520;11.342;2023-07-22T06:56:00;100881.38;;;25.73;77.34
74370;BME280;71062;44.520;11.342;2023-07-22T06:58:26;100890.75;;;25.70;77.44
74370;BME280;71062;44.520;11.342;2023-07-22T07:00:53;100891.75;;;25.78;77.09
74370;BME280;71062;44.520;11.342;2023-07-22T07:03:19;100887.94;;;25.93;77.12
74370;BME280;71062;44.520;11.342;2023-07-22T07:05:52;100886.44;;;25.99;75.41
74370;BME280;71062;44.520;11.342;2023-07-22T07:08:18;100895.09;;;25.80;75.87
74370;BME280;71062;44.520;11.342;2023-07-22T07:10:44;100899.78;;;26.07;75.49
74370;BME280;71062;44.520;11.342;2023-07-22T07:13:10;100892.97;;;25.96;75.20
74370;BME280;71062;44.520;11.342;2023-07-22T07:15:35;100895.25;;;25.87;74.90
74370;BME280;71062;44.520;11.342;2023-07-22T07:18:01;100886.38;;;25.95;75.39
74370;BME280;71062;44.520;11.342;2023-07-22T07:20:27;100880.06;;;26.09;74.63
74370;BME280;71062;44.520;11.342;2023-07-22T07:22:53;100882.50;;;26.07;74.18
74370;BME280;71062;44.520;11.342;2023-07-22T07:25:18;100884.94;;;26.05;74.49
74370;BME280;71062;44.520;11.342;2023-07-22T07:27:44;100880.94;;;26.32;73.75
74370;BME280;71062;44.520;11.342;2023-07-22T07:30:10;100886.66;;;26.51;73.49
74370;BME280;71062;44.520;11.342;2023-07-22T07:32:36;100901.75;;;26.22;73.38
74370;BME280;71062;44.520;11.342;2023-07-22T07:35:02;100909.31;;;26.30;73.69
74370;BME280;71062;44.520;11.342;2023-07-22T07:37:29;100905.50;;;26.45;73.14
74370;BME280;71062;44.520;11.342;2023-07-22T07:39:55;100910.59;;;26.55;72.30
74370;BME280;71062;44.520;11.342;2023-07-22T07:42:28;100911.63;;;26.43;72.12
74370;BME280;71062;44.520;11.342;2023-07-22T07:44:54;100913.94;;;26.57;71.89
74370;BME280;71062;44.520;11.342;2023-07-22T07:47:20;100915.47;;;26.51;71.82
74370;BME280;71062;44.520;11.342;2023-07-22T07:49:46;100913.03;;;26.53;71.61
74370;BME280;71062;44.520;11.342;2023-07-22T07:52:14;100920.59;;;26.61;71.66
74370;BME280;71062;44.520;11.342;2023-07-22T07:54:40;100921.78;;;26.79;71.40
74370;BME280;71062;44.520;11.342;2023-07-22T07:57:06;100918.81;;;26.53;71.77
74370;BME280;71062;44.520;11.342;2023-07-22T07:59:31;100920.31;;;26.47;71.88
74370;BME280;71062;44.520;11.342;2023-07-22T08:01:57;100920.41;;;26.51;71.07
74370;BME280;71062;44.520;11.342;2023-07-22T08:04:23;100920.88;;;26.75;69.35
74370;BME280;71062;44.520;11.342;2023-07-22T08:06:49;100915.16;;;26.79;69.81
74370;BME280;71062;44.520;11.342;2023-07-22T08:09:14;100918.06;;;26.79;69.93
74370;BME280;71062;44.520;11.342;2023-07-22T08:11:45;100909.59;;;26.89;69.00
74370;BME280;71062;44.520;11.342;2023-07-22T08:14:11;100912.25;;;27.01;67.43
74370;BME280;71062;44.520;11.342;2023-07-22T08:16:36;100915.72;;;27.10;68.43
74370;BME280;71062;44.520;11.342;2023-07-22T08:19:02;100920.84;;;27.20;67.67
74370;BME280;71062;44.520;11.342;2023-07-22T08:21:28;100921.25;;;27.48;67.14
74370;BME280;71062;44.520;11.342;2023-07-22T08:23:54;100902.34;;;27.51;67.08
74370;BME280;71062;44.520;11.342;2023-07-22T08:26:19;100917.91;;;27.73;66.71
74370;BME280;71062;44.520;11.342;2023-07-22T08:28:47;100912.34;;;27.87;65.60
74370;BME280;71062;44.520;11.342;2023-07-22T08:31:13;100917.88;;;27.99;64.94
74370;BME280;71062;44.520;11.342;2023-07-22T08:33:38;100902.44;;;27.88;64.87
74370;BME280;71062;44.520;11.342;2023-07-22T08:36:04;100903.03;;;28.00;65.01
74370;BME280;71062;44.520;11.342;2023-07-22T08:38:30;100897.66;;;27.99;64.41
74370;BME280;71062;44.520;11.342;2023-07-22T08:40:57;100902.16;;;27.96;64.05
74370;BME280;71062;44.520;11.342;2023-07-22T08:43:23;100898.84;;;27.98;64.38
74370;BME280;71062;44.520;11.342;2023-07-22T08:45:49;100905.69;;;28.16;63.96
74370;BME280;71062;44.520;11.342;2023-07-22T08:48:17;100905.69;;;28.16;63.65
74370;BME280;71062;44.520;11.342;2023-07-22T08:50:52;100900.34;;;28.18;62.93
74370;BME280;71062;44.520;11.342;2023-07-22T08:53:18;100899.94;;;28.19;62.36
74370;BME280;71062;44.520;11.342;2023-07-22T08:55:45;100893.34;;;28.19;62.61
74370;BME280;71062;44.520;11.342;2023-07-22T08:58:11;100894.38;;;28.37;62.15
74370;BME280;71062;44.520;11.342;2023-07-22T09:00:38;100898.72;;;28.57;60.82
74370;BME280;71062;44.520;11.342;2023-07-22T09:03:05;100899.28;;;28.73;61.14
74370;BME280;71062;44.520;11.342;2023-07-22T09:05:34;100904.72;;;28.82;61.27
74370;BME280;71062;44.520;11.342;2023-07-22T09:08:06;100902.13;;;28.66;62.14
74370;BME280;71062;44.520;11.342;2023-07-22T09:10:33;100893.13;;;28.78;61.17
74370;BME280;71062;44.520;11.342;2023-07-22T09:13:02;100893.56;;;28.80;59.93
74370;BME280;71062;44.520;11.342;2023-07-22T09:15:28;100883.34;;;28.93;59.49
74370;BME280;71062;44.520;11.342;2023-07-22T09:17:54;100890.78;;;28.94;60.18
74370;BME280;71062;44.520;11.342;2023-07-22T09:20:20;100883.59;;;29.21;60.52
74370;BME280;71062;44.520;11.342;2023-07-22T09:22:50;100879.31;;;29.08;59.53
74370;BME280;71062;44.520;11.342;2023-07-22T09:25:20;100886.88;;;29.16;59.35
74370;BME280;71062;44.520;11.342;2023-07-22T09:27:49;100890.19;;;29.22;59.45
74370;BME280;71062;44.520;11.342;2023-07-22T09:30:41;100887.72;;;29.20;58.80
74370;BME280;71062;44.520;11.342;2023-07-22T09:33:22;100884.19;;;28.97;59.96
74370;BME280;71062;44.520;11.342;2023-07-22T09:35:51;100880.91;;;28.95;58.63
74370;BME280;71062;44.520;11.342;2023-07-22T09:38:24;100878.78;;;29.46;57.86
74370;BME280;71062;44.520;11.342;2023-07-22T09:40:51;100886.28;;;29.54;57.23
74370;BME280;71062;44.520;11.342;2023-07-22T09:43:16;100883.03;;;29.67;56.65
74370;BME280;71062;44.520;11.342;2023-07-22T09:45:47;100891.28;;;29.64;56.57
74370;BME280;71062;44.520;11.342;2023-07-22T09:48:13;100886.72;;;29.60;57.00
74370;BME280;71062;44.520;11.342;2023-07-22T09:50:39;100880.66;;;29.83;56.53
74370;BME280;71062;44.520;11.342;2023-07-22T09:53:06;100884.88;;;30.03;56.12
74370;BME280;71062;44.520;11.342;2023-07-22T09:55:32;100890.69;;;30.10;55.67
74370;BME280;71062;44.520;11.342;2023-07-22T10:00:31;100869.13;;;29.97;54.67
74370;BME280;71062;44.520;11.342;2023-07-22T10:02:58;100871.84;;;29.61;55.90
74370;BME280;71062;44.520;11.342;2023-07-22T10:05:26;100862.19;;;30.26;55.05
74370;BME280;71062;44.520;11.342;2023-07-22T10:07:58;100865.09;;;30.33;54.41
74370;BME280;71062;44.520;11.342;2023-07-22T10:10:37;100870.09;;;30.46;54.20
74370;BME280;71062;44.520;11.342;2023-07-22T10:13:03;100863.84;;;30.30;53.92
74370;BME280;71062;44.520;11.342;2023-07-22T10:15:30;100875.91;;;30.57;53.53
74370;BME280;71062;44.520;11.342;2023-07-22T10:17:56;100866.81;;;30.80;53.00
74370;BME280;71062;44.520;11.342;2023-07-22T10:20:23;100863.47;;;30.70;52.79
74370;BME280;71062;44.520;11.342;2023-07-22T10:22:49;100861.81;;;30.73;52.81
74370;BME280;71062;44.520;11.342;2023-07-22T10:25:16;100860.19;;;30.79;52.69
74370;BME280;71062;44.520;11.342;2023-07-22T10:27:42;100857.66;;;30.46;53.46
74370;BME280;71062;44.520;11.342;2023-07-22T10:30:13;100851.47;;;30.72;53.29
74370;BME280;71062;44.520;11.342;2023-07-22T10:32:47;100850.25;;;31.01;52.75
74370;BME280;71062;44.520;11.342;2023-07-22T10:35:34;100854.31;;;31.42;51.56
74370;BME280;71062;44.520;11.342;2023-07-22T10:38:09;100850.22;;;30.73;51.98
74370;BME280;71062;44.520;11.342;2023-07-22T10:40:54;100845.25;;;30.56;53.38
74370;BME280;71062;44.520;11.342;2023-07-22T10:43:32;100853.56;;;30.82;52.42
74370;BME280;71062;44.520;11.342;2023-07-22T10:46:09;100841.53;;;30.87;52.02
74370;BME280;71062;44.520;11.342;2023-07-22T10:48:36;100842.38;;;30.84;51.95
74370;BME280;71062;44.520;11.342;2023-07-22T10:51:21;100830.31;;;30.75;52.91
74370;BME280;71062;44.520;11.342;2023-07-22T10:53:47;100837.78;;;30.69;52.72
74370;BME280;71062;44.520;11.342;2023-07-22T10:56:22;100833.66;;;30.98;52.65
74370;BME280;71062;44.520;11.342;2023-07-22T11:06:30;100833.41;;;31.90;51.60
74370;BME280;71062;44.520;11.342;2023-07-22T11:08:56;100825.91;;;31.96;50.68
74370;BME280;71062;44.520;11.342;2023-07-22T11:11:35;100818.03;;;31.86;50.52
74370;BME280;71062;44.520;11.342;2023-07-22T11:14:16;100819.25;;;31.99;50.97
74370;BME280;71062;44.520;11.342;2023-07-22T11:16:44;100822.63;;;31.83;51.06
74370;BME280;71062;44.520;11.342;2023-07-22T11:19:10;100816.97;;;31.44;51.75
74370;BME280;71062;44.520;11.342;2023-07-22T11:21:36;100811.00;;;31.80;50.93
74370;BME280;71062;44.520;11.342;2023-07-22T11:24:03;100806.34;;;32.07;49.96
74370;BME280;71062;44.520;11.342;2023-07-22T11:26:30;100815.66;;;32.39;50.04
74370;BME280;71062;44.520;11.342;2023-07-22T11:28:57;100807.66;;;31.92;49.71
74370;BME280;71062;44.520;11.342;2023-07-22T11:31:29;100801.91;;;31.74;49.84
74370;BME280;71062;44.520;11.342;2023-07-22T11:33:55;100801.66;;;32.20;49.79
74370;BME280;71062;44.520;11.342;2023-07-22T11:36:20;100823.41;;;31.98;49.25
74370;BME280;71062;44.520;11.342;2023-07-22T11:38:46;100821.69;;;32.04;49.43
74370;BME280;71062;44.520;11.342;2023-07-22T11:41:12;100813.16;;;32.41;48.22
74370;BME280;71062;44.520;11.342;2023-07-22T11:43:37;100802.25;;;33.40;46.51
74370;BME280;71062;44.520;11.342;2023-07-22T11:46:05;100798.03;;;32.60;48.09
74370;BME280;71062;44.520;11.342;2023-07-22T11:48:31;100802.31;;;32.48;49.10
74370;BME280;71062;44.520;11.342;2023-07-22T11:51:00;100795.63;;;32.99;48.16
74370;BME280;71062;44.520;11.342;2023-07-22T11:53:28;100787.94;;;33.87;46.42
74370;BME280;71062;44.520;11.342;2023-07-22T11:55:55;100792.78;;;34.27;44.75
74370;BME280;71062;44.520;11.342;2023-07-22T11:58:25;100785.16;;;34.33;44.41
74370;BME280;71062;44.520;11.342;2023-07-22T12:01:10;100775.94;;;33.10;46.34
74370;BME280;71062;44.520;11.342;2023-07-22T12:03:35;100767.47;;;33.60;46.24
74370;BME280;71062;44.520;11.342;2023-07-22T12:06:06;100757.69;;;33.73;46.48
74370;BME280;71062;44.520;11.342;2023-07-22T12:08:33;100760.22;;;33.04;46.52
74370;BME280;71062;44.520;11.342;2023-07-22T12:10:59;100745.94;;;32.25;48.32
74370;BME280;71062;44.520;11.342;2023-07-22T12:13:25;100739.59;;;33.25;46.61
74370;BME280;71062;44.520;11.342;2023-07-22T12:16:06;100722.19;;;34.09;44.36
74370;BME280;71062;44.520;11.342;2023-07-22T12:18:44;100734.00;;;33.04;47.29
74370;BME280;71062;44.520;11.342;2023-07-22T12:21:10;100720.00;;;32.48;48.27
74370;BME280;71062;44.520;11.342;2023-07-22T12:23:37;100719.41;;;33.41;46.93
74370;BME280;71062;44.520;11.342;2023-07-22T12:26:04;100720.69;;;34.50;44.24
74370;BME280;71062;44.520;11.342;2023-07-22T12:28:30;100713.31;;;33.62;46.00
74370;BME280;71062;44.520;11.342;2023-07-22T12:30:56;100708.25;;;33.93;45.47
74370;BME280;71062;44.520;11.342;2023-07-22T12:33:23;100700.44;;;33.60;45.67
74370;BME280;71062;44.520;11.342;2023-07-22T12:35:56;100696.59;;;32.62;47.90
74370;BME280;71062;44.520;11.342;2023-07-22T12:38:22;100701.66;;;34.16;45.28
74370;BME280;71062;44.520;11.342;2023-07-22T12:40:48;100715.59;;;35.01;42.33
74370;BME280;71062;44.520;11.342;2023-07-22T12:43:14;100699.31;;;35.42;41.79
74370;BME280;71062;44.520;11.342;2023-07-22T12:45:39;100697.22;;;35.78;40.51
74370;BME280;71062;44.520;11.342;2023-07-22T12:48:05;100683.03;;;35.97;41.14
74370;BME280;71062;44.520;11.342;2023-07-22T12:50:31;100709.81;;;36.27;39.00
74370;BME280;71062;44.520;11.342;2023-07-22T12:53:01;100747.84;;;36.95;38.35